Time;durP1;ratioP1;P1;durP2;ratioP2;P2;SDS_P1;SDS_P2;PMS_P1;PMS_P2;Temp;Humidity;BMP_temperature;BMP_pressure;BME280_temperature;BME280_humidity;BME280_pressure;Samples;Min_cycle;Max_cycle;Signal;HPM_P1;HPM_P2
2023/11/07 00:01:49;;;;;;;4.30;4.20;;;;;;;;;;6307713;28;20301;-70
2023/11/07 00:04:55;;;;;;;4.15;3.95;;;;;;;;;;6307055;28;20305;-71
2023/11/07 00:07:59;;;;;;;4.28;4.18;;;;;;;;;;6306152;28;20567;-71
2023/11/07 00:11:03;;;;;;;4.93;4.53;;;;;;;;;;6307374;28;20342;-70
2023/11/07 00:14:07;;;;;;;4.00;3.90;;;;;;;;;;6306667;28;20306;-69
2023/11/07 00:17:11;;;;;;;3.95;3.75;;;;;;;;;;6307588;28;20298;-72
2023/11/07 00:20:17;;;;;;;4.10;4.00;;;;;;;;;;6306534;28;20293;-70
2023/11/07 00:23:20;;;;;;;3.65;3.55;;;;;;;;;;6306495;28;20294;-70
2023/11/07 00:26:25;;;;;;;4.75;4.32;;;;;;;;;;6306934;28;20309;-70
2023/11/07 00:29:30;;;;;;;4.82;4.28;;;;;;;;;;6305277;28;20330;-71
2023/11/07 00:32:34;;;;;;;3.60;3.50;;;;;;;;;;6306729;28;20330;-71
2023/11/07 00:35:41;;;;;;;4.20;3.85;;;;;;;;;;6306160;28;20317;-71
2023/11/07 00:38:45;;;;;;;3.88;3.72;;;;;;;;;;6304971;28;20322;-72
2023/11/07 00:41:49;;;;;;;4.15;3.95;;;;;;;;;;6304983;28;20294;-71
2023/11/07 00:44:52;;;;;;;3.95;3.75;;;;;;;;;;6305706;28;20373;-70
2023/11/07 00:47:56;;;;;;;3.20;3.13;;;;;;;;;;6306440;28;20294;-70
2023/11/07 00:51:02;;;;;;;3.33;3.28;;;;;;;;;;6304349;28;20606;-71
2023/11/07 00:54:07;;;;;;;3.85;3.67;;;;;;;;;;6304528;28;20309;-70
2023/11/07 00:57:11;;;;;;;3.72;3.58;;;;;;;;;;6305975;28;20583;-71
2023/11/07 01:00:16;;;;;;;3.70;3.60;;;;;;;;;;6306057;28;20302;-70
2023/11/07 01:03:21;;;;;;;3.90;3.70;;;;;;;;;;6304174;28;20603;-72
2023/11/07 01:06:26;;;;;;;3.88;3.63;;;;;;;;;;6306099;28;20250;-71
2023/11/07 01:09:30;;;;;;;3.70;3.60;;;;;;;;;;6304233;28;20378;-71
2023/11/07 01:12:34;;;;;;;4.10;3.90;;;;;;;;;;6306306;28;20321;-70
2023/11/07 01:15:38;;;;;;;3.97;3.88;;;;;;;;;;6303895;28;20290;-70
2023/11/07 01:18:41;;;;;;;4.28;4.18;;;;;;;;;;6304686;28;20282;-71
2023/11/07 01:21:47;;;;;;;4.20;4.00;;;;;;;;;;6305880;28;20316;-70
2023/11/07 01:24:51;;;;;;;3.97;3.65;;;;;;;;;;6304028;28;20606;-72
2023/11/07 01:27:55;;;;;;;3.70;3.50;;;;;;;;;;6304345;28;20293;-71
2023/11/07 01:30:58;;;;;;;4.00;3.80;;;;;;;;;;6305128;28;20298;-71
2023/11/07 01:34:02;;;;;;;3.97;3.85;;;;;;;;;;6305411;28;20305;-71
2023/11/07 01:37:07;;;;;;;4.00;3.88;;;;;;;;;;6305734;28;20302;-71
2023/11/07 01:40:12;;;;;;;4.65;4.30;;;;;;;;;;6305224;28;20303;-71
2023/11/07 01:43:16;;;;;;;4.03;3.72;;;;;;;;;;6305262;28;20295;-70
2023/11/07 01:46:21;;;;;;;4.70;3.83;;;;;;;;;;6305452;28;20306;-70
2023/11/07 01:49:25;;;;;;;4.25;3.95;;;;;;;;;;6305364;28;20294;-71
2023/11/07 01:52:31;;;;;;;4.32;4.13;;;;;;;;;;6302418;28;20654;-71
2023/11/07 01:55:35;;;;;;;4.63;4.43;;;;;;;;;;6303790;28;20497;-73
2023/11/07 01:58:38;;;;;;;4.50;4.20;;;;;;;;;;6304507;28;20293;-71
2023/11/07 02:01:44;;;;;;;4.65;4.38;;;;;;;;;;6304497;28;20330;-70
2023/11/07 02:04:48;;;;;;;4.30;3.95;;;;;;;;;;6304022;28;20302;-70
2023/11/07 02:07:54;;;;;;;4.13;4.00;;;;;;;;;;6304048;28;20293;-71
2023/11/07 02:10:58;;;;;;;4.18;3.97;;;;;;;;;;6304717;28;20533;-70
2023/11/07 02:14:02;;;;;;;4.57;4.22;;;;;;;;;;6303704;28;20366;-70
2023/11/07 02:17:10;;;;;;;4.30;4.10;;;;;;;;;;6305474;28;20290;-71
2023/11/07 02:20:14;;;;;;;4.80;4.60;;;;;;;;;;6305324;28;20389;-70
2023/11/07 02:23:29;;;;;;;4.75;4.50;;;;;;;;;;6303770;28;20366;-71
2023/11/07 02:26:33;;;;;;;4.30;4.10;;;;;;;;;;6305389;28;20291;-72
2023/11/07 02:29:37;;;;;;;4.40;4.20;;;;;;;;;;6304662;28;20311;-71
2023/11/07 02:32:42;;;;;;;4.35;4.07;;;;;;;;;;6309783;28;20590;-71
2023/11/07 02:35:45;;;;;;;4.47;4.07;;;;;;;;;;6309184;28;20298;-70
2023/11/07 02:38:51;;;;;;;4.72;4.32;;;;;;;;;;6309176;28;20369;-70
2023/11/07 02:41:55;;;;;;;4.18;3.88;;;;;;;;;;6308226;28;20297;-70
2023/11/07 02:44:59;;;;;;;4.05;3.85;;;;;;;;;;6308958;28;20338;-71
2023/11/07 02:48:03;;;;;;;4.25;4.05;;;;;;;;;;6309210;28;20307;-73
2023/11/07 02:51:07;;;;;;;4.50;4.30;;;;;;;;;;6309592;28;20568;-71
2023/11/07 02:54:12;;;;;;;4.32;4.03;;;;;;;;;;6306472;28;20329;-70
2023/11/07 02:57:16;;;;;;;4.30;4.10;;;;;;;;;;6308233;28;20567;-70
2023/11/07 03:00:20;;;;;;;4.13;3.90;;;;;;;;;;6307106;28;20445;-71
2023/11/07 03:03:25;;;;;;;4.00;3.88;;;;;;;;;;6308144;28;20290;-72
2023/11/07 03:06:29;;;;;;;4.13;3.90;;;;;;;;;;6308783;28;20886;-70
2023/11/07 03:09:35;;;;;;;4.38;4.07;;;;;;;;;;6308079;28;20274;-72
2023/11/07 03:12:38;;;;;;;4.20;4.10;;;;;;;;;;6278726;28;20300;-71
2023/11/07 03:15:44;;;;;;;3.80;3.60;;;;;;;;;;6258521;28;20299;-71
2023/11/07 03:18:47;;;;;;;4.18;3.85;;;;;;;;;;6258523;28;20303;-70
2023/11/07 03:21:51;;;;;;;3.92;3.72;;;;;;;;;;6257607;28;20295;-70
2023/11/07 03:24:56;;;;;;;3.70;3.60;;;;;;;;;;6258884;28;20292;-70
2023/11/07 03:28:00;;;;;;;4.10;3.85;;;;;;;;;;6256907;28;20307;-72
2023/11/07 03:31:04;;;;;;;3.80;3.70;;;;;;;;;;6258378;28;20299;-71
2023/11/07 03:34:09;;;;;;;4.47;4.03;;;;;;;;;;6258021;28;20456;-71
2023/11/07 03:37:13;;;;;;;4.13;3.83;;;;;;;;;;6258385;28;20311;-71
2023/11/07 03:40:20;;;;;;;4.53;4.32;;;;;;;;;;6258117;28;20311;-70
2023/11/07 03:43:23;;;;;;;4.18;3.97;;;;;;;;;;6256900;28;20299;-70
2023/11/07 03:46:27;;;;;;;6.25;4.22;;;;;;;;;;6257909;28;20307;-69
2023/11/07 03:49:31;;;;;;;4.15;3.95;;;;;;;;;;6257649;28;20296;-70
2023/11/07 03:52:35;;;;;;;4.50;4.13;;;;;;;;;;6256307;28;20315;-69
2023/11/07 03:55:40;;;;;;;3.80;3.60;;;;;;;;;;6257451;28;20491;-71
2023/11/07 03:58:44;;;;;;;3.60;3.50;;;;;;;;;;6257255;28;20291;-71
2023/11/07 04:01:47;;;;;;;4.03;3.90;;;;;;;;;;6271491;28;20367;-71
2023/11/07 04:04:51;;;;;;;7.45;4.10;;;;;;;;;;6280992;28;20307;-71
2023/11/07 04:07:56;;;;;;;4.13;3.92;;;;;;;;;;6281675;28;20448;-69
2023/11/07 04:11:01;;;;;;;3.92;3.83;;;;;;;;;;6282465;28;20299;-71
2023/11/07 04:14:05;;;;;;;3.70;3.50;;;;;;;;;;6297912;28;20322;-71
2023/11/07 04:17:09;;;;;;;3.70;3.60;;;;;;;;;;6307093;28;20298;-70
2023/11/07 04:20:13;;;;;;;4.00;3.75;;;;;;;;;;6306230;28;20298;-70
2023/11/07 04:23:18;;;;;;;3.75;3.50;;;;;;;;;;6306505;28;20286;-72
2023/11/07 04:26:23;;;;;;;3.80;3.60;;;;;;;;;;6307065;28;20290;-70
2023/11/07 04:29:26;;;;;;;3.38;3.28;;;;;;;;;;6304706;28;20302;-70
2023/11/07 04:32:30;;;;;;;3.70;3.60;;;;;;;;;;6306524;28;20297;-72
2023/11/07 04:35:35;;;;;;;3.80;3.60;;;;;;;;;;6305899;28;20321;-69
2023/11/07 04:38:41;;;;;;;3.70;3.60;;;;;;;;;;6305950;28;20295;-71
2023/11/07 04:41:46;;;;;;;3.30;3.20;;;;;;;;;;6306419;28;20357;-72
2023/11/07 04:44:50;;;;;;;3.80;3.70;;;;;;;;;;6305802;28;20365;-71
2023/11/07 04:47:54;;;;;;;3.90;3.70;;;;;;;;;;6307103;28;20623;-68
2023/11/07 04:50:59;;;;;;;3.95;3.75;;;;;;;;;;6306176;28;20290;-70
2023/11/07 04:54:03;;;;;;;3.78;3.55;;;;;;;;;;6304112;28;20493;-71
2023/11/07 04:57:08;;;;;;;3.80;3.67;;;;;;;;;;6306071;28;20595;-71
2023/11/07 05:00:15;;;;;;;3.70;3.60;;;;;;;;;;6304751;28;20294;-71
2023/11/07 05:03:19;;;;;;;3.95;3.75;;;;;;;;;;6305448;28;20286;-70
2023/11/07 05:06:35;;;;;;;3.78;3.58;;;;;;;;;;6305908;28;20575;-71
2023/11/07 05:09:39;;;;;;;3.63;3.53;;;;;;;;;;6305281;28;20374;-71
2023/11/07 05:12:44;;;;;;;3.63;3.53;;;;;;;;;;6305401;28;20290;-70
2023/11/07 05:15:48;;;;;;;3.88;3.67;;;;;;;;;;6305581;28;20297;-70
2023/11/07 05:18:52;;;;;;;3.53;3.42;;;;;;;;;;6305076;28;20302;-70
2023/11/07 05:21:56;;;;;;;4.18;3.97;;;;;;;;;;6305402;28;20293;-71
2023/11/07 05:24:59;;;;;;;4.25;4.00;;;;;;;;;;6305357;28;20463;-71
2023/11/07 05:28:05;;;;;;;3.95;3.80;;;;;;;;;;6305037;28;20295;-71
2023/11/07 05:31:09;;;;;;;4.13;3.83;;;;;;;;;;6305742;28;20295;-71
2023/11/07 05:34:13;;;;;;;4.22;4.03;;;;;;;;;;6305262;28;20313;-72
2023/11/07 05:37:17;;;;;;;4.05;3.83;;;;;;;;;;6305421;28;20321;-71
2023/11/07 05:40:23;;;;;;;4.15;3.95;;;;;;;;;;6304972;28;20301;-71
2023/11/07 05:43:28;;;;;;;4.10;3.80;;;;;;;;;;6305032;28;20294;-70
2023/11/07 05:46:32;;;;;;;3.65;3.35;;;;;;;;;;6305742;28;20302;-71
2023/11/07 05:49:36;;;;;;;3.85;3.55;;;;;;;;;;6304896;28;20306;-71
2023/11/07 05:52:40;;;;;;;3.17;3.08;;;;;;;;;;6303842;28;20334;-71
2023/11/07 05:55:44;;;;;;;3.83;3.72;;;;;;;;;;6291557;28;20429;-71
2023/11/07 05:58:50;;;;;;;3.70;3.45;;;;;;;;;;6304498;28;20313;-70
2023/11/07 06:01:54;;;;;;;4.40;4.05;;;;;;;;;;6305017;28;20393;-71
2023/11/07 06:04:58;;;;;;;4.15;3.95;;;;;;;;;;6304956;28;20428;-71
2023/11/07 06:08:02;;;;;;;3.67;3.58;;;;;;;;;;6310181;28;20282;-72
2023/11/07 06:11:06;;;;;;;4.43;4.13;;;;;;;;;;6310656;28;20471;-71
2023/11/07 06:14:11;;;;;;;3.50;3.40;;;;;;;;;;6310063;28;20444;-70
2023/11/07 06:17:17;;;;;;;4.40;4.10;;;;;;;;;;6310062;28;20290;-73
2023/11/07 06:20:21;;;;;;;3.72;3.53;;;;;;;;;;6309212;28;20473;-73
2023/11/07 06:23:25;;;;;;;4.10;3.90;;;;;;;;;;6309330;28;20298;-71
2023/11/07 06:26:29;;;;;;;4.22;3.90;;;;;;;;;;6308726;28;20377;-71
2023/11/07 06:29:34;;;;;;;4.18;3.97;;;;;;;;;;6309311;28;20465;-71
2023/11/07 06:32:38;;;;;;;4.35;3.88;;;;;;;;;;6309564;28;20611;-73
2023/11/07 06:35:44;;;;;;;5.00;4.45;;;;;;;;;;6309006;28;20305;-73
2023/11/07 06:38:48;;;;;;;4.68;4.40;;;;;;;;;;6309454;28;20310;-69
2023/11/07 06:41:53;;;;;;;5.15;4.75;;;;;;;;;;6309240;28;20579;-71
2023/11/07 06:44:59;;;;;;;4.70;4.40;;;;;;;;;;6308475;28;20330;-70
2023/11/07 06:48:04;;;;;;;4.45;4.10;;;;;;;;;;6308456;28;20286;-71
2023/11/07 06:51:09;;;;;;;4.43;4.10;;;;;;;;;;6309218;28;20397;-71
2023/11/07 06:54:13;;;;;;;5.70;4.32;;;;;;;;;;6305573;28;20417;-70
2023/11/07 06:57:17;;;;;;;4.40;4.10;;;;;;;;;;6308832;28;20275;-70
2023/11/07 07:00:24;;;;;;;4.00;3.90;;;;;;;;;;6308259;28;20638;-70
2023/11/07 07:03:30;;;;;;;4.05;3.95;;;;;;;;;;6307724;28;20302;-71
2023/11/07 07:06:35;;;;;;;5.30;4.90;;;;;;;;;;6308397;28;20293;-69
2023/11/07 07:09:41;;;;;;;5.05;4.57;;;;;;;;;;6305824;28;20314;-69
2023/11/07 07:12:45;;;;;;;4.25;4.03;;;;;;;;;;6287797;28;20302;-71
2023/11/07 07:15:50;;;;;;;4.43;4.03;;;;;;;;;;6308246;28;20289;-70
2023/11/07 07:18:53;;;;;;;7.63;4.63;;;;;;;;;;6307842;28;20294;-71
2023/11/07 07:21:57;;;;;;;5.55;5.13;;;;;;;;;;6308052;28;20293;-71
2023/11/07 07:25:05;;;;;;;5.50;5.10;;;;;;;;;;6307843;28;20298;-72
2023/11/07 07:28:09;;;;;;;7.30;5.95;;;;;;;;;;6307660;28;20306;-73
2023/11/07 07:31:18;;;;;;;7.30;6.22;;;;;;;;;;6308061;28;20301;-71
2023/11/07 07:34:22;;;;;;;15.43;7.22;;;;;;;;;;6306080;28;20310;-71
2023/11/07 07:37:27;;;;;;;12.77;6.78;;;;;;;;;;6307919;28;20294;-72
2023/11/07 07:40:32;;;;;;;6.18;5.47;;;;;;;;;;6307383;28;20290;-70
2023/11/07 07:43:36;;;;;;;9.73;5.82;;;;;;;;;;6307402;28;20282;-71
2023/11/07 07:46:44;;;;;;;8.05;5.85;;;;;;;;;;6307552;28;20310;-74
2023/11/07 07:49:47;;;;;;;6.47;5.40;;;;;;;;;;6307629;28;20302;-71
2023/11/07 07:52:56;;;;;;;10.68;5.22;;;;;;;;;;6305495;28;20589;-72
2023/11/07 07:56:00;;;;;;;4.72;4.30;;;;;;;;;;6307595;28;20466;-72
2023/11/07 07:59:05;;;;;;;6.03;5.18;;;;;;;;;;6307870;28;20290;-70
2023/11/07 08:02:10;;;;;;;4.93;4.50;;;;;;;;;;6308170;28;20330;-73
2023/11/07 08:05:16;;;;;;;8.52;4.28;;;;;;;;;;6307334;28;20471;-70
2023/11/07 08:08:20;;;;;;;4.70;4.30;;;;;;;;;;6307547;28;20286;-70
2023/11/07 08:11:24;;;;;;;3.97;3.67;;;;;;;;;;6307847;28;20490;-71
2023/11/07 08:14:30;;;;;;;6.72;3.53;;;;;;;;;;6307098;28;20297;-71
2023/11/07 08:17:37;;;;;;;4.32;3.70;;;;;;;;;;6307348;28;20496;-71
2023/11/07 08:20:41;;;;;;;3.72;3.40;;;;;;;;;;6306188;28;20366;-70
2023/11/07 08:23:45;;;;;;;3.78;3.25;;;;;;;;;;6306664;28;20301;-70
2023/11/07 08:26:49;;;;;;;4.82;3.10;;;;;;;;;;6307188;28;20326;-70
2023/11/07 08:29:54;;;;;;;3.33;3.13;;;;;;;;;;6306061;28;20298;-71
2023/11/07 08:32:59;;;;;;;2.90;2.80;;;;;;;;;;6306850;28;20325;-71
2023/11/07 08:36:03;;;;;;;3.95;2.92;;;;;;;;;;6307445;28;20298;-72
2023/11/07 08:39:16;;;;;;;3.25;2.95;;;;;;;;;;6306602;28;20293;-71
2023/11/07 08:42:20;;;;;;;2.92;2.78;;;;;;;;;;6306072;28;20520;-71
2023/11/07 08:45:24;;;;;;;2.33;2.33;;;;;;;;;;6306235;28;20302;-71
2023/11/07 08:48:30;;;;;;;2.45;2.03;;;;;;;;;;6306328;28;20319;-71
2023/11/07 08:51:34;;;;;;;2.78;1.88;;;;;;;;;;6303533;28;20614;-70
2023/11/07 08:54:39;;;;;;;3.70;1.80;;;;;;;;;;6305892;28;20305;-71
2023/11/07 08:57:44;;;;;;;2.42;2.30;;;;;;;;;;6305955;28;20282;-71
2023/11/07 09:00:51;;;;;;;2.20;2.10;;;;;;;;;;6306373;28;20369;-72
2023/11/07 09:03:56;;;;;;;4.45;2.20;;;;;;;;;;6306062;28;20310;-70
2023/11/07 09:07:00;;;;;;;1.90;1.80;;;;;;;;;;6306188;28;20551;-72
2023/11/07 09:10:05;;;;;;;1.80;1.65;;;;;;;;;;6305498;28;20442;-72
2023/11/07 09:13:10;;;;;;;2.05;1.50;;;;;;;;;;6304348;28;20599;-70
2023/11/07 09:16:15;;;;;;;5.10;4.70;;;;;;;;;;6306057;28;20643;-71
2023/11/07 09:19:20;;;;;;;1.60;1.60;;;;;;;;;;6305707;28;20503;-70
2023/11/07 09:22:24;;;;;;;1.83;1.73;;;;;;;;;;6306039;28;20294;-70
2023/11/07 09:25:28;;;;;;;2.05;2.00;;;;;;;;;;6305544;28;20478;-70
2023/11/07 09:28:32;;;;;;;2.15;2.00;;;;;;;;;;6305494;28;20294;-71
2023/11/07 09:31:36;;;;;;;2.10;1.98;;;;;;;;;;6305747;28;20302;-71
2023/11/07 09:34:41;;;;;;;1.60;1.60;;;;;;;;;;6305184;28;20302;-72
2023/11/07 09:37:45;;;;;;;1.70;1.70;;;;;;;;;;6305764;28;20285;-71
2023/11/07 09:40:49;;;;;;;1.80;1.70;;;;;;;;;;6307825;28;20290;-69
2023/11/07 09:43:53;;;;;;;1.70;1.58;;;;;;;;;;6310354;28;20478;-70
2023/11/07 09:46:58;;;;;;;2.00;1.70;;;;;;;;;;6310799;28;20301;-70
2023/11/07 09:50:07;;;;;;;1.73;1.63;;;;;;;;;;6308649;28;20294;-71
2023/11/07 09:53:14;;;;;;;1.52;1.52;;;;;;;;;;6308478;28;20302;-71
2023/11/07 09:56:18;;;;;;;1.45;1.45;;;;;;;;;;6310575;28;20318;-70
2023/11/07 09:59:26;;;;;;;1.55;1.55;;;;;;;;;;6310180;28;20302;-70
2023/11/07 10:02:31;;;;;;;1.52;1.38;;;;;;;;;;6310618;28;20308;-71
2023/11/07 10:05:38;;;;;;;1.40;1.40;;;;;;;;;;6309983;28;20294;-72
2023/11/07 10:08:42;;;;;;;1.40;1.40;;;;;;;;;;6310198;28;20326;-71
2023/11/07 10:11:49;;;;;;;1.27;1.27;;;;;;;;;;6309809;28;20289;-73
2023/11/07 10:14:53;;;;;;;1.30;1.27;;;;;;;;;;6309725;28;20526;-71
2023/11/07 10:17:58;;;;;;;1.30;1.30;;;;;;;;;;6309849;28;20290;-71
2023/11/07 10:21:04;;;;;;;1.40;1.40;;;;;;;;;;6309962;28;20326;-71
2023/11/07 10:24:08;;;;;;;1.33;1.33;;;;;;;;;;6309128;28;20494;-72
2023/11/07 10:27:15;;;;;;;2.92;1.30;;;;;;;;;;6309129;28;20262;-71
2023/11/07 10:30:18;;;;;;;2.38;1.40;;;;;;;;;;6309412;28;20306;-72
2023/11/07 10:33:27;;;;;;;1.65;1.48;;;;;;;;;;6309206;28;20406;-70
2023/11/07 10:36:40;;;;;;;1.20;1.20;;;;;;;;;;6309788;28;20319;-73
2023/11/07 10:39:55;;;;;;;5.68;1.42;;;;;;;;;;6309095;28;20342;-71
2023/11/07 10:42:59;;;;;;;1.00;1.00;;;;;;;;;;6307847;28;20423;-73
2023/11/07 10:46:04;;;;;;;1.27;1.27;;;;;;;;;;6309547;28;20325;-71
2023/11/07 10:49:09;;;;;;;1.60;1.10;;;;;;;;;;6309182;28;20486;-72
2023/11/07 10:52:16;;;;;;;2.05;1.15;;;;;;;;;;6307897;28;20286;-71
2023/11/07 10:55:20;;;;;;;2.38;1.58;;;;;;;;;;6309216;28;20257;-71
2023/11/07 10:58:27;;;;;;;1.42;1.42;;;;;;;;;;6309382;28;20294;-72
2023/11/07 11:01:33;;;;;;;4.15;1.60;;;;;;;;;;6309382;28;20289;-71
2023/11/07 11:04:39;;;;;;;2.17;1.42;;;;;;;;;;6307483;28;20290;-70
2023/11/07 11:07:48;;;;;;;2.63;1.52;;;;;;;;;;6308810;28;20305;-72
2023/11/07 11:10:53;;;;;;;4.07;2.05;;;;;;;;;;6308451;28;20302;-71
2023/11/07 11:13:58;;;;;;;1.30;1.20;;;;;;;;;;6306431;28;20320;-72
2023/11/07 11:17:07;;;;;;;1.20;1.20;;;;;;;;;;6308898;28;20298;-71
2023/11/07 11:20:22;;;;;;;4.22;1.35;;;;;;;;;;6308152;28;20389;-71
2023/11/07 11:23:39;;;;;;;2.28;1.42;;;;;;;;;;6307971;28;20354;-71
2023/11/07 11:26:48;;;;;;;1.00;1.00;;;;;;;;;;6308396;28;20295;-72
2023/11/07 11:29:52;;;;;;;1.13;1.13;;;;;;;;;;6307973;28;20351;-72
2023/11/07 11:33:06;;;;;;;1.10;1.10;;;;;;;;;;6307758;28;20310;-72
2023/11/07 11:36:43;;;;;;;1.38;1.10;;;;;;;;;;6306122;28;20330;-71
2023/11/07 11:39:49;;;;;;;1.13;1.13;;;;;;;;;;6308173;28;20610;-71
2023/11/07 11:43:05;;;;;;;1.20;1.20;;;;;;;;;;6307641;28;20463;-71
2023/11/07 11:46:37;;;;;;;0.98;0.98;;;;;;;;;;6307663;28;20310;-71
2023/11/07 11:50:15;;;;;;;1.13;1.02;;;;;;;;;;6307510;28;20294;-72
2023/11/07 11:53:34;;;;;;;1.40;0.90;;;;;;;;;;6305577;28;20314;-71
2023/11/07 11:57:07;;;;;;;0.80;0.80;;;;;;;;;;6307704;28;20286;-70
2023/11/07 12:00:12;;;;;;;1.75;1.10;;;;;;;;;;6306650;28;20301;-71
2023/11/07 12:03:18;;;;;;;1.15;1.15;;;;;;;;;;6306484;28;20290;-71
2023/11/07 12:06:23;;;;;;;3.22;1.10;;;;;;;;;;6307616;28;20323;-70
2023/11/07 12:09:30;;;;;;;1.20;1.05;;;;;;;;;;6306932;28;20302;-71
2023/11/07 12:12:37;;;;;;;1.00;1.00;;;;;;;;;;6307566;28;20322;-70
2023/11/07 12:15:43;;;;;;;1.27;1.10;;;;;;;;;;6307036;28;20245;-70
2023/11/07 12:18:49;;;;;;;0.80;0.80;;;;;;;;;;6307005;28;20294;-69
2023/11/07 12:21:55;;;;;;;0.80;0.63;;;;;;;;;;6307108;28;20294;-72
2023/11/07 12:25:12;;;;;;;0.80;0.80;;;;;;;;;;6307128;28;20306;-72
2023/11/07 12:28:17;;;;;;;0.60;0.60;;;;;;;;;;6306791;28;20294;-70
2023/11/07 12:31:21;;;;;;;0.90;0.73;;;;;;;;;;6307310;28;20580;-70
2023/11/07 12:34:32;;;;;;;3.40;0.90;;;;;;;;;;6306462;28;20543;-70
2023/11/07 12:37:36;;;;;;;0.80;0.80;;;;;;;;;;6306968;28;20306;-70
2023/11/07 12:40:40;;;;;;;0.80;0.80;;;;;;;;;;6306385;28;20306;-72
2023/11/07 12:43:45;;;;;;;0.73;0.73;;;;;;;;;;6306415;28;20370;-72
2023/11/07 12:46:50;;;;;;;2.05;1.10;;;;;;;;;;6306460;28;20290;-71
2023/11/07 12:49:55;;;;;;;1.00;1.00;;;;;;;;;;6306387;28;20594;-71
2023/11/07 12:53:00;;;;;;;0.85;0.85;;;;;;;;;;6304810;28;20329;-71
2023/11/07 12:56:10;;;;;;;1.00;1.00;;;;;;;;;;6306874;28;20239;-71
2023/11/07 12:59:17;;;;;;;0.82;0.82;;;;;;;;;;6306029;28;20298;-72
2023/11/07 13:02:22;;;;;;;1.90;0.93;;;;;;;;;;6306863;28;20583;-70
2023/11/07 13:05:26;;;;;;;1.20;1.20;;;;;;;;;;6306249;28;20310;-70
2023/11/07 13:08:31;;;;;;;1.00;1.00;;;;;;;;;;6306277;28;20301;-70
2023/11/07 13:11:35;;;;;;;1.10;1.10;;;;;;;;;;6306635;28;20302;-72
2023/11/07 13:14:40;;;;;;;0.85;0.85;;;;;;;;;;6305981;28;20295;-71
2023/11/07 13:17:44;;;;;;;0.93;0.90;;;;;;;;;;6305688;28;20294;-71
2023/11/07 13:20:48;;;;;;;1.00;1.00;;;;;;;;;;6306049;28;20610;-71
2023/11/07 13:23:53;;;;;;;1.20;1.20;;;;;;;;;;6305864;28;20305;-70
2023/11/07 13:26:57;;;;;;;1.40;0.95;;;;;;;;;;6304805;28;20466;-70
2023/11/07 13:30:05;;;;;;;0.90;0.90;;;;;;;;;;6305405;28;20634;-71
2023/11/07 13:33:09;;;;;;;0.90;0.90;;;;;;;;;;6305830;28;20298;-71
2023/11/07 13:36:14;;;;;;;0.90;0.88;;;;;;;;;;6306046;28;20298;-70
2023/11/07 13:39:23;;;;;;;1.38;1.00;;;;;;;;;;6305612;28;20410;-70
2023/11/07 13:42:27;;;;;;;1.00;1.00;;;;;;;;;;6305968;28;20299;-71
2023/11/07 13:45:32;;;;;;;0.93;0.90;;;;;;;;;;6305090;28;20315;-71
2023/11/07 13:48:37;;;;;;;0.90;0.90;;;;;;;;;;6305438;28;20294;-71
2023/11/07 13:51:42;;;;;;;0.95;0.95;;;;;;;;;;6304061;28;20459;-71
2023/11/07 13:54:46;;;;;;;3.13;0.80;;;;;;;;;;6305341;28;20294;-70
2023/11/07 13:57:52;;;;;;;2.08;0.80;;;;;;;;;;6305115;28;20294;-71
2023/11/07 14:00:57;;;;;;;2.15;0.93;;;;;;;;;;6304864;28;20481;-72
2023/11/07 14:04:01;;;;;;;0.95;0.95;;;;;;;;;;6305127;28;20310;-71
2023/11/07 14:07:06;;;;;;;1.88;1.00;;;;;;;;;;6305756;28;20305;-71
2023/11/07 14:10:12;;;;;;;1.08;1.00;;;;;;;;;;6305087;28;20354;-71
2023/11/07 14:13:18;;;;;;;1.90;1.40;;;;;;;;;;6305144;28;20366;-71
2023/11/07 14:16:24;;;;;;;2.85;1.00;;;;;;;;;;6305392;28;20302;-71
2023/11/07 14:19:29;;;;;;;1.95;1.20;;;;;;;;;;6304738;28;20579;-70
2023/11/07 14:22:34;;;;;;;1.35;1.35;;;;;;;;;;6305439;28;20321;-71
2023/11/07 14:25:38;;;;;;;1.27;1.15;;;;;;;;;;6304954;28;20298;-71
2023/11/07 14:28:42;;;;;;;1.02;1.02;;;;;;;;;;6309574;28;20286;-71
2023/11/07 14:32:06;;;;;;;1.10;1.10;;;;;;;;;;6309916;28;20294;-72
2023/11/07 14:35:11;;;;;;;1.42;1.30;;;;;;;;;;6309464;28;20314;-71
2023/11/07 14:38:15;;;;;;;1.25;1.25;;;;;;;;;;6308223;28;20646;-72
2023/11/07 14:41:22;;;;;;;1.75;1.05;;;;;;;;;;6309421;28;20291;-70
2023/11/07 14:44:26;;;;;;;1.08;1.08;;;;;;;;;;6308663;28;20322;-71
2023/11/07 14:47:33;;;;;;;1.15;1.02;;;;;;;;;;6309400;28;20329;-71
2023/11/07 14:50:38;;;;;;;0.93;0.93;;;;;;;;;;6308873;28;20306;-70
2023/11/07 14:53:42;;;;;;;1.02;1.02;;;;;;;;;;6307084;28;20294;-70
2023/11/07 14:56:47;;;;;;;1.00;1.00;;;;;;;;;;6309107;28;20285;-72
2023/11/07 15:00:09;;;;;;;1.00;1.00;;;;;;;;;;6308674;28;20302;-72
2023/11/07 15:03:14;;;;;;;3.22;1.27;;;;;;;;;;6287182;28;20293;-70
2023/11/07 15:06:18;;;;;;;1.15;1.10;;;;;;;;;;6308921;28;20262;-71
2023/11/07 15:09:22;;;;;;;1.27;1.00;;;;;;;;;;6308283;28;20402;-72
2023/11/07 15:12:25;;;;;;;1.75;1.00;;;;;;;;;;6308802;28;20254;-71
2023/11/07 15:15:30;;;;;;;1.13;1.05;;;;;;;;;;6308200;28;20327;-71
2023/11/07 15:18:35;;;;;;;1.20;1.20;;;;;;;;;;6306687;28;20298;-72
2023/11/07 15:21:39;;;;;;;1.25;1.15;;;;;;;;;;6308591;28;20448;-73
2023/11/07 15:24:43;;;;;;;0.98;0.82;;;;;;;;;;6308454;28;20290;-71
2023/11/07 15:27:47;;;;;;;2.60;1.17;;;;;;;;;;6308789;28;20282;-72
2023/11/07 15:30:51;;;;;;;1.00;1.00;;;;;;;;;;6308929;28;20294;-71
2023/11/07 15:33:56;;;;;;;1.00;1.00;;;;;;;;;;6308296;28;20290;-72
2023/11/07 15:37:00;;;;;;;1.02;1.02;;;;;;;;;;6307898;28;20295;-71
2023/11/07 15:40:06;;;;;;;1.00;1.00;;;;;;;;;;6307059;28;20550;-72
2023/11/07 15:43:10;;;;;;;1.67;1.10;;;;;;;;;;6306400;28;20300;-71
2023/11/07 15:46:14;;;;;;;1.00;1.00;;;;;;;;;;6308022;28;20282;-71
2023/11/07 15:49:19;;;;;;;2.72;1.15;;;;;;;;;;6306211;28;20472;-71
2023/11/07 15:52:23;;;;;;;1.20;1.20;;;;;;;;;;6306111;28;20314;-71
2023/11/07 15:55:28;;;;;;;1.48;1.00;;;;;;;;;;6307501;28;20306;-71
2023/11/07 15:58:32;;;;;;;1.00;1.00;;;;;;;;;;6307779;28;20290;-71
2023/11/07 16:01:37;;;;;;;1.42;1.00;;;;;;;;;;6308289;28;20307;-70
2023/11/07 16:04:42;;;;;;;2.92;1.13;;;;;;;;;;6307834;28;20294;-69
2023/11/07 16:07:46;;;;;;;0.95;0.80;;;;;;;;;;6307319;28;20310;-71
2023/11/07 16:10:49;;;;;;;1.65;1.10;;;;;;;;;;6307698;28;20318;-71
2023/11/07 16:13:53;;;;;;;1.38;1.05;;;;;;;;;;6307149;28;20290;-70
2023/11/07 16:16:57;;;;;;;1.00;1.00;;;;;;;;;;6307423;28;20302;-71
2023/11/07 16:20:02;;;;;;;1.20;1.20;;;;;;;;;;6306737;28;20325;-70
2023/11/07 16:23:08;;;;;;;1.08;0.95;;;;;;;;;;6307105;28;20286;-71
2023/11/07 16:26:12;;;;;;;1.10;1.10;;;;;;;;;;6307190;28;20286;-71
2023/11/07 16:29:17;;;;;;;5.78;1.15;;;;;;;;;;6306569;28;20290;-70
2023/11/07 16:32:21;;;;;;;1.15;1.13;;;;;;;;;;6307104;28;20293;-72
2023/11/07 16:35:26;;;;;;;0.90;0.90;;;;;;;;;;6306727;28;20294;-72
2023/11/07 16:38:29;;;;;;;1.38;0.80;;;;;;;;;;6306516;28;20302;-70
2023/11/07 16:41:34;;;;;;;0.80;0.80;;;;;;;;;;6307004;28;20294;-72
2023/11/07 16:44:39;;;;;;;0.90;0.90;;;;;;;;;;6306351;28;20322;-70
2023/11/07 16:47:43;;;;;;;0.90;0.90;;;;;;;;;;6306833;28;20296;-71
2023/11/07 16:50:48;;;;;;;1.10;1.00;;;;;;;;;;6306560;28;20314;-70
2023/11/07 16:53:53;;;;;;;0.80;0.80;;;;;;;;;;6304493;28;20303;-71
2023/11/07 16:56:57;;;;;;;3.13;0.90;;;;;;;;;;6305155;28;20486;-70
2023/11/07 17:00:01;;;;;;;1.48;0.90;;;;;;;;;;6306203;28;20314;-70
2023/11/07 17:03:08;;;;;;;1.13;1.05;;;;;;;;;;6306129;28;20317;-70
2023/11/07 17:06:15;;;;;;;2.45;1.20;;;;;;;;;;6305648;28;20274;-71
2023/11/07 17:09:20;;;;;;;1.00;1.00;;;;;;;;;;6306089;28;20298;-71
2023/11/07 17:12:24;;;;;;;2.05;1.10;;;;;;;;;;6306155;28;20426;-72
2023/11/07 17:15:28;;;;;;;1.25;1.17;;;;;;;;;;6305664;28;20298;-71
2023/11/07 17:18:34;;;;;;;1.33;1.10;;;;;;;;;;6305971;28;20626;-71
2023/11/07 17:21:42;;;;;;;1.58;1.20;;;;;;;;;;6306051;28;20307;-70
2023/11/07 17:24:46;;;;;;;1.00;1.00;;;;;;;;;;6305685;28;20498;-72
2023/11/07 17:27:50;;;;;;;1.30;1.10;;;;;;;;;;6304294;28;20567;-73
2023/11/07 17:30:53;;;;;;;1.30;1.30;;;;;;;;;;6306037;28;20317;-71
2023/11/07 17:33:57;;;;;;;3.50;1.00;;;;;;;;;;6287609;28;20303;-71
2023/11/07 17:37:03;;;;;;;1.13;1.00;;;;;;;;;;6280734;28;20611;-73
2023/11/07 17:40:09;;;;;;;1.17;1.10;;;;;;;;;;6280565;28;20299;-72
2023/11/07 17:43:13;;;;;;;1.55;1.25;;;;;;;;;;6280467;28;20290;-70
2023/11/07 17:46:21;;;;;;;1.80;1.73;;;;;;;;;;6280382;28;20615;-72
2023/11/07 17:49:25;;;;;;;2.85;1.20;;;;;;;;;;6280475;28;20283;-73
2023/11/07 17:52:30;;;;;;;1.00;1.00;;;;;;;;;;6279357;28;20631;-73
2023/11/07 17:55:34;;;;;;;1.48;1.20;;;;;;;;;;6280417;28;20307;-72
2023/11/07 17:58:38;;;;;;;2.47;1.30;;;;;;;;;;6280153;28;20286;-73
2023/11/07 18:01:42;;;;;;;1.17;1.08;;;;;;;;;;6282497;28;20287;-71
2023/11/07 18:04:46;;;;;;;3.03;1.10;;;;;;;;;;6285216;28;20302;-72
2023/11/07 18:07:51;;;;;;;1.13;1.13;;;;;;;;;;6285234;28;20300;-72
2023/11/07 18:11:01;;;;;;;5.03;1.67;;;;;;;;;;6297559;28;20302;-71
2023/11/07 18:14:05;;;;;;;4.22;1.70;;;;;;;;;;6309665;28;20298;-72
2023/11/07 18:17:09;;;;;;;2.03;1.80;;;;;;;;;;6310411;28;20303;-70
2023/11/07 18:20:13;;;;;;;3.60;2.42;;;;;;;;;;6309663;28;20333;-71
2023/11/07 18:23:18;;;;;;;2.80;2.40;;;;;;;;;;6310050;28;20532;-69
2023/11/07 18:26:22;;;;;;;2.15;2.05;;;;;;;;;;6310438;28;20294;-72
2023/11/07 18:29:27;;;;;;;1.85;1.85;;;;;;;;;;6309444;28;20590;-71
2023/11/07 18:32:31;;;;;;;2.40;2.28;;;;;;;;;;6309851;28;20302;-72